Taber, Idaho
Current Conditions -  °F | °C
As of 10:53 PM on Tuesday 25 Nov 2014 (Local Time) from KIDA Reporting Station
Broken Clouds Broken Clouds  
Wind Chill: 32°   Ceiling: 9000
Heat Index: 41°   Visibility: 10mi
Dew Point: 37°   Wind: 21mph
Humidity: 86%   Direction: 200°SSW
Pressure: 30.12"   Gusts: NA
Location:  43.2718°N, 112.405°W
Report Text: KIDA 260553Z AUTO 20018KT 10SM BKN090 05/03 A3012 RMK AO2 PK WND 22026/0511 SLP208 T00500028 10067 20050 53010
Loading
Personal Weather Stations






























Interactive Weather Map New forecast layout! Learn more

10-Day Weather Forecast

Advertisements
Track Severe Weather on mobile